sensor_id;sensor_type;location;lat;lon;timestamp;P1;durP1;ratioP1;P2;durP2;ratioP2
72123;SDS011;63818;37.134;-8.548;2023-06-10T00:00:49;16.8;;;6.0;;
72123;SDS011;63818;37.134;-8.548;2023-06-10T00:05:36;20.5;;;6.3;;
72123;SDS011;63818;37.134;-8.548;2023-06-10T00:10:22;17.4;;;5.9;;
72123;SDS011;63818;37.134;-8.548;2023-06-10T00:15:09;14.6;;;5.7;;
72123;SDS011;63818;37.134;-8.548;2023-06-10T00:19:55;17.6;;;6.1;;
72123;SDS011;63818;37.134;-8.548;2023-06-10T00:24:41;19.2;;;6.4;;
72123;SDS011;63818;37.134;-8.548;2023-06-10T00:29:27;19.9;;;6.4;;
72123;SDS011;63818;37.134;-8.548;2023-06-10T00:34:13;19.5;;;6.0;;
72123;SDS011;63818;37.134;-8.548;2023-06-10T00:39:00;18.0;;;6.1;;
72123;SDS011;63818;37.134;-8.548;2023-06-10T00:43:46;15.3;;;6.1;;
72123;SDS011;63818;37.134;-8.548;2023-06-10T00:48:32;12.4;;;5.6;;
72123;SDS011;63818;37.134;-8.548;2023-06-10T00:53:19;17.6;;;5.8;;
72123;SDS011;63818;37.134;-8.548;2023-06-10T00:58:07;20.4;;;6.1;;
72123;SDS011;63818;37.134;-8.548;2023-06-10T01:02:53;17.8;;;6.2;;
72123;SDS011;63818;37.134;-8.548;2023-06-10T01:07:40;15.9;;;6.1;;
72123;SDS011;63818;37.134;-8.548;2023-06-10T01:12:33;15.4;;;5.8;;
72123;SDS011;63818;37.134;-8.548;2023-06-10T01:17:24;15.2;;;6.0;;
72123;SDS011;63818;37.134;-8.548;2023-06-10T01:22:10;15.3;;;6.0;;
72123;SDS011;63818;37.134;-8.548;2023-06-10T01:26:56;15.2;;;6.1;;
72123;SDS011;63818;37.134;-8.548;2023-06-10T01:31:48;19.5;;;6.3;;
72123;SDS011;63818;37.134;-8.548;2023-06-10T01:36:37;22.3;;;6.1;;
72123;SDS011;63818;37.134;-8.548;2023-06-10T01:41:25;19.3;;;5.8;;
72123;SDS011;63818;37.134;-8.548;2023-06-10T01:46:12;18.0;;;5.9;;
72123;SDS011;63818;37.134;-8.548;2023-06-10T01:50:58;21.7;;;6.7;;
72123;SDS011;63818;37.134;-8.548;2023-06-10T01:55:44;21.4;;;7.2;;
72123;SDS011;63818;37.134;-8.548;2023-06-10T02:00:30;18.7;;;6.3;;
72123;SDS011;63818;37.134;-8.548;2023-06-10T02:05:16;17.6;;;5.7;;
72123;SDS011;63818;37.134;-8.548;2023-06-10T02:10:02;14.5;;;6.0;;
72123;SDS011;63818;37.134;-8.548;2023-06-10T02:14:48;15.7;;;6.3;;
72123;SDS011;63818;37.134;-8.548;2023-06-10T02:19:34;15.1;;;5.9;;
72123;SDS011;63818;37.134;-8.548;2023-06-10T02:24:21;15.6;;;6.0;;
72123;SDS011;63818;37.134;-8.548;2023-06-10T02:29:07;18.8;;;6.5;;
72123;SDS011;63818;37.134;-8.548;2023-06-10T02:33:53;14.3;;;6.0;;
72123;SDS011;63818;37.134;-8.548;2023-06-10T02:38:41;14.1;;;6.2;;
72123;SDS011;63818;37.134;-8.548;2023-06-10T02:43:27;20.5;;;7.1;;
72123;SDS011;63818;37.134;-8.548;2023-06-10T02:48:13;19.4;;;6.6;;
72123;SDS011;63818;37.134;-8.548;2023-06-10T02:52:59;15.0;;;6.1;;
72123;SDS011;63818;37.134;-8.548;2023-06-10T02:57:45;16.0;;;6.1;;
72123;SDS011;63818;37.134;-8.548;2023-06-10T03:02:33;21.1;;;6.3;;
72123;SDS011;63818;37.134;-8.548;2023-06-10T03:07:18;23.5;;;7.3;;
72123;SDS011;63818;37.134;-8.548;2023-06-10T03:12:05;18.4;;;7.2;;
72123;SDS011;63818;37.134;-8.548;2023-06-10T03:16:51;15.2;;;6.1;;
72123;SDS011;63818;37.134;-8.548;2023-06-10T03:21:37;16.5;;;6.1;;
72123;SDS011;63818;37.134;-8.548;2023-06-10T03:26:24;17.1;;;6.6;;
72123;SDS011;63818;37.134;-8.548;2023-06-10T03:31:10;17.2;;;6.4;;
72123;SDS011;63818;37.134;-8.548;2023-06-10T03:35:56;16.3;;;6.2;;
72123;SDS011;63818;37.134;-8.548;2023-06-10T03:40:44;19.6;;;6.5;;
72123;SDS011;63818;37.134;-8.548;2023-06-10T03:45:30;21.8;;;6.9;;
72123;SDS011;63818;37.134;-8.548;2023-06-10T03:50:16;18.5;;;6.7;;
72123;SDS011;63818;37.134;-8.548;2023-06-10T03:55:02;18.4;;;6.3;;
72123;SDS011;63818;37.134;-8.548;2023-06-10T03:59:48;21.8;;;6.4;;
72123;SDS011;63818;37.134;-8.548;2023-06-10T04:04:34;21.9;;;6.5;;
72123;SDS011;63818;37.134;-8.548;2023-06-10T04:09:22;17.4;;;6.5;;
72123;SDS011;63818;37.134;-8.548;2023-06-10T04:14:08;16.1;;;6.8;;
72123;SDS011;63818;37.134;-8.548;2023-06-10T04:18:54;15.7;;;6.9;;
72123;SDS011;63818;37.134;-8.548;2023-06-10T04:23:40;18.0;;;6.8;;
72123;SDS011;63818;37.134;-8.548;2023-06-10T04:28:28;21.2;;;6.8;;
72123;SDS011;63818;37.134;-8.548;2023-06-10T04:33:14;15.3;;;6.0;;
72123;SDS011;63818;37.134;-8.548;2023-06-10T04:38:00;12.3;;;6.0;;
72123;SDS011;63818;37.134;-8.548;2023-06-10T04:42:46;12.7;;;6.3;;
72123;SDS011;63818;37.134;-8.548;2023-06-10T04:47:31;12.1;;;5.8;;
72123;SDS011;63818;37.134;-8.548;2023-06-10T04:52:17;17.1;;;6.5;;
72123;SDS011;63818;37.134;-8.548;2023-06-10T04:57:04;19.1;;;6.8;;
72123;SDS011;63818;37.134;-8.548;2023-06-10T05:01:50;18.6;;;6.4;;
72123;SDS011;63818;37.134;-8.548;2023-06-10T05:06:36;16.4;;;6.4;;
72123;SDS011;63818;37.134;-8.548;2023-06-10T05:11:22;14.1;;;6.3;;
72123;SDS011;63818;37.134;-8.548;2023-06-10T05:16:08;14.8;;;6.5;;
72123;SDS011;63818;37.134;-8.548;2023-06-10T05:20:56;16.2;;;6.6;;
72123;SDS011;63818;37.134;-8.548;2023-06-10T05:25:42;15.5;;;6.4;;
72123;SDS011;63818;37.134;-8.548;2023-06-10T05:30:28;14.8;;;6.5;;
72123;SDS011;63818;37.134;-8.548;2023-06-10T05:35:14;15.5;;;6.5;;
72123;SDS011;63818;37.134;-8.548;2023-06-10T05:40:00;14.1;;;6.9;;
72123;SDS011;63818;37.134;-8.548;2023-06-10T05:44:46;16.0;;;7.4;;
72123;SDS011;63818;37.134;-8.548;2023-06-10T05:49:33;16.5;;;7.0;;
72123;SDS011;63818;37.134;-8.548;2023-06-10T05:54:19;15.1;;;7.3;;
72123;SDS011;63818;37.134;-8.548;2023-06-10T05:59:05;13.3;;;7.1;;
72123;SDS011;63818;37.134;-8.548;2023-06-10T06:03:51;11.6;;;6.8;;
72123;SDS011;63818;37.134;-8.548;2023-06-10T06:08:37;14.8;;;7.1;;
72123;SDS011;63818;37.134;-8.548;2023-06-10T06:13:22;16.8;;;7.6;;
72123;SDS011;63818;37.134;-8.548;2023-06-10T06:18:08;13.7;;;7.4;;
72123;SDS011;63818;37.134;-8.548;2023-06-10T06:22:56;14.2;;;7.5;;
72123;SDS011;63818;37.134;-8.548;2023-06-10T06:27:43;14.4;;;7.5;;
72123;SDS011;63818;37.134;-8.548;2023-06-10T06:32:29;11.9;;;6.8;;
72123;SDS011;63818;37.134;-8.548;2023-06-10T06:37:17;13.5;;;6.9;;
72123;SDS011;63818;37.134;-8.548;2023-06-10T06:42:04;17.7;;;7.3;;
72123;SDS011;63818;37.134;-8.548;2023-06-10T06:46:50;17.0;;;7.4;;
72123;SDS011;63818;37.134;-8.548;2023-06-10T06:51:36;14.7;;;7.4;;
72123;SDS011;63818;37.134;-8.548;2023-06-10T06:56:22;15.2;;;7.6;;
72123;SDS011;63818;37.134;-8.548;2023-06-10T07:01:08;16.8;;;7.7;;
72123;SDS011;63818;37.134;-8.548;2023-06-10T07:05:54;17.3;;;7.6;;
72123;SDS011;63818;37.134;-8.548;2023-06-10T07:10:40;17.0;;;7.8;;
72123;SDS011;63818;37.134;-8.548;2023-06-10T07:15:26;19.8;;;7.9;;
72123;SDS011;63818;37.134;-8.548;2023-06-10T07:20:12;19.7;;;7.9;;
72123;SDS011;63818;37.134;-8.548;2023-06-10T07:24:58;17.0;;;7.8;;
72123;SDS011;63818;37.134;-8.548;2023-06-10T07:29:44;15.9;;;7.6;;
72123;SDS011;63818;37.134;-8.548;2023-06-10T07:34:30;14.8;;;7.7;;
72123;SDS011;63818;37.134;-8.548;2023-06-10T07:39:16;17.8;;;8.1;;
72123;SDS011;63818;37.134;-8.548;2023-06-10T07:44:02;22.3;;;8.3;;
72123;SDS011;63818;37.134;-8.548;2023-06-10T07:48:50;19.8;;;7.8;;
72123;SDS011;63818;37.134;-8.548;2023-06-10T07:53:36;16.6;;;7.4;;
72123;SDS011;63818;37.134;-8.548;2023-06-10T07:58:22;18.8;;;7.5;;
72123;SDS011;63818;37.134;-8.548;2023-06-10T08:03:09;18.9;;;7.8;;
72123;SDS011;63818;37.134;-8.548;2023-06-10T08:07:57;18.6;;;7.6;;
72123;SDS011;63818;37.134;-8.548;2023-06-10T08:12:43;18.4;;;7.0;;
72123;SDS011;63818;37.134;-8.548;2023-06-10T08:17:29;16.9;;;7.4;;
72123;SDS011;63818;37.134;-8.548;2023-06-10T08:22:15;18.9;;;7.8;;
72123;SDS011;63818;37.134;-8.548;2023-06-10T08:27:01;18.9;;;7.5;;
72123;SDS011;63818;37.134;-8.548;2023-06-10T08:31:47;16.3;;;7.1;;
72123;SDS011;63818;37.134;-8.548;2023-06-10T08:36:33;19.8;;;7.2;;
72123;SDS011;63818;37.134;-8.548;2023-06-10T08:41:19;21.9;;;7.1;;
72123;SDS011;63818;37.134;-8.548;2023-06-10T08:46:09;20.5;;;7.0;;
72123;SDS011;63818;37.134;-8.548;2023-06-10T08:50:56;20.4;;;7.3;;
72123;SDS011;63818;37.134;-8.548;2023-06-10T08:55:42;15.9;;;7.2;;
72123;SDS011;63818;37.134;-8.548;2023-06-10T09:00:32;13.5;;;7.1;;
72123;SDS011;63818;37.134;-8.548;2023-06-10T09:05:19;16.9;;;7.4;;
72123;SDS011;63818;37.134;-8.548;2023-06-10T09:10:06;18.8;;;7.3;;
72123;SDS011;63818;37.134;-8.548;2023-06-10T09:14:52;19.4;;;7.5;;
72123;SDS011;63818;37.134;-8.548;2023-06-10T09:19:38;20.4;;;8.0;;
72123;SDS011;63818;37.134;-8.548;2023-06-10T09:24:27;22.0;;;7.1;;
72123;SDS011;63818;37.134;-8.548;2023-06-10T09:29:16;19.4;;;6.8;;
72123;SDS011;63818;37.134;-8.548;2023-06-10T09:34:10;17.9;;;7.0;;
72123;SDS011;63818;37.134;-8.548;2023-06-10T09:38:56;18.6;;;7.2;;
72123;SDS011;63818;37.134;-8.548;2023-06-10T09:43:42;18.0;;;7.2;;
72123;SDS011;63818;37.134;-8.548;2023-06-10T09:48:29;18.4;;;6.9;;
72123;SDS011;63818;37.134;-8.548;2023-06-10T09:53:20;15.5;;;6.7;;
72123;SDS011;63818;37.134;-8.548;2023-06-10T09:58:06;17.9;;;6.5;;
72123;SDS011;63818;37.134;-8.548;2023-06-10T10:02:53;21.0;;;6.9;;
72123;SDS011;63818;37.134;-8.548;2023-06-10T10:07:41;18.4;;;7.0;;
72123;SDS011;63818;37.134;-8.548;2023-06-10T10:12:28;14.8;;;6.7;;
72123;SDS011;63818;37.134;-8.548;2023-06-10T10:17:16;15.8;;;7.0;;
72123;SDS011;63818;37.134;-8.548;2023-06-10T10:22:03;16.3;;;7.3;;
72123;SDS011;63818;37.134;-8.548;2023-06-10T10:26:52;15.3;;;7.1;;
72123;SDS011;63818;37.134;-8.548;2023-06-10T10:31:44;14.6;;;6.9;;
72123;SDS011;63818;37.134;-8.548;2023-06-10T10:36:32;17.3;;;6.6;;
72123;SDS011;63818;37.134;-8.548;2023-06-10T10:41:19;20.4;;;6.5;;
72123;SDS011;63818;37.134;-8.548;2023-06-10T10:46:09;19.1;;;6.7;;
72123;SDS011;63818;37.134;-8.548;2023-06-10T10:50:58;17.6;;;6.8;;
72123;SDS011;63818;37.134;-8.548;2023-06-10T10:55:46;17.5;;;7.0;;
72123;SDS011;63818;37.134;-8.548;2023-06-10T11:00:51;18.5;;;7.1;;
72123;SDS011;63818;37.134;-8.548;2023-06-10T11:05:38;17.0;;;7.2;;
72123;SDS011;63818;37.134;-8.548;2023-06-10T11:10:30;21.2;;;7.6;;
72123;SDS011;63818;37.134;-8.548;2023-06-10T11:15:20;20.6;;;7.5;;
72123;SDS011;63818;37.134;-8.548;2023-06-10T11:20:09;16.1;;;7.1;;
72123;SDS011;63818;37.134;-8.548;2023-06-10T11:24:56;16.5;;;7.2;;
72123;SDS011;63818;37.134;-8.548;2023-06-10T11:29:42;17.5;;;7.2;;
72123;SDS011;63818;37.134;-8.548;2023-06-10T11:35:00;19.2;;;7.0;;
72123;SDS011;63818;37.134;-8.548;2023-06-10T11:39:48;19.6;;;7.0;;
72123;SDS011;63818;37.134;-8.548;2023-06-10T11:44:37;18.8;;;7.5;;
72123;SDS011;63818;37.134;-8.548;2023-06-10T11:49:23;17.6;;;7.8;;
72123;SDS011;63818;37.134;-8.548;2023-06-10T11:54:10;19.5;;;8.3;;
72123;SDS011;63818;37.134;-8.548;2023-06-10T11:58:56;25.9;;;8.6;;
72123;SDS011;63818;37.134;-8.548;2023-06-10T12:03:44;27.2;;;7.8;;
72123;SDS011;63818;37.134;-8.548;2023-06-10T12:08:30;25.5;;;7.6;;
72123;SDS011;63818;37.134;-8.548;2023-06-10T12:13:16;24.2;;;7.6;;
72123;SDS011;63818;37.134;-8.548;2023-06-10T12:18:03;21.6;;;6.9;;
72123;SDS011;63818;37.134;-8.548;2023-06-10T12:22:49;18.9;;;6.8;;
72123;SDS011;63818;37.134;-8.548;2023-06-10T12:27:36;16.4;;;7.4;;
72123;SDS011;63818;37.134;-8.548;2023-06-10T12:32:22;21.9;;;7.9;;
72123;SDS011;63818;37.134;-8.548;2023-06-10T12:37:25;25.1;;;7.7;;
72123;SDS011;63818;37.134;-8.548;2023-06-10T12:42:12;21.3;;;7.4;;
72123;SDS011;63818;37.134;-8.548;2023-06-10T12:46:58;21.5;;;7.8;;
72123;SDS011;63818;37.134;-8.548;2023-06-10T12:51:44;22.2;;;7.5;;
72123;SDS011;63818;37.134;-8.548;2023-06-10T12:56:30;23.0;;;7.2;;
72123;SDS011;63818;37.134;-8.548;2023-06-10T13:01:16;24.9;;;7.6;;
72123;SDS011;63818;37.134;-8.548;2023-06-10T13:06:02;24.0;;;7.9;;
72123;SDS011;63818;37.134;-8.548;2023-06-10T13:10:48;21.3;;;7.9;;
72123;SDS011;63818;37.134;-8.548;2023-06-10T13:15:34;20.9;;;7.4;;
72123;SDS011;63818;37.134;-8.548;2023-06-10T13:20:21;22.8;;;7.5;;
72123;SDS011;63818;37.134;-8.548;2023-06-10T13:25:07;19.7;;;7.7;;
72123;SDS011;63818;37.134;-8.548;2023-06-10T13:29:56;15.6;;;6.8;;
72123;SDS011;63818;37.134;-8.548;2023-06-10T13:34:42;17.2;;;6.6;;
72123;SDS011;63818;37.134;-8.548;2023-06-10T13:39:30;20.7;;;7.2;;
72123;SDS011;63818;37.134;-8.548;2023-06-10T13:44:16;20.9;;;7.3;;
72123;SDS011;63818;37.134;-8.548;2023-06-10T13:49:02;17.5;;;7.1;;
72123;SDS011;63818;37.134;-8.548;2023-06-10T13:53:48;20.2;;;7.2;;
72123;SDS011;63818;37.134;-8.548;2023-06-10T13:58:34;23.7;;;7.3;;
72123;SDS011;63818;37.134;-8.548;2023-06-10T14:03:19;19.0;;;7.1;;
72123;SDS011;63818;37.134;-8.548;2023-06-10T14:08:06;19.2;;;7.1;;
72123;SDS011;63818;37.134;-8.548;2023-06-10T14:12:52;23.4;;;7.9;;
72123;SDS011;63818;37.134;-8.548;2023-06-10T14:17:38;14.0;;;7.6;;
72123;SDS011;63818;37.134;-8.548;2023-06-10T14:22:24;17.5;;;7.0;;
72123;SDS011;63818;37.134;-8.548;2023-06-10T14:27:10;18.5;;;7.0;;
72123;SDS011;63818;37.134;-8.548;2023-06-10T14:31:58;20.2;;;7.5;;
72123;SDS011;63818;37.134;-8.548;2023-06-10T14:36:43;24.3;;;8.1;;
72123;SDS011;63818;37.134;-8.548;2023-06-10T14:41:32;23.5;;;7.5;;
72123;SDS011;63818;37.134;-8.548;2023-06-10T14:46:18;21.5;;;7.0;;
72123;SDS011;63818;37.134;-8.548;2023-06-10T14:51:04;17.7;;;6.9;;
72123;SDS011;63818;37.134;-8.548;2023-06-10T14:55:51;15.2;;;7.2;;
72123;SDS011;63818;37.134;-8.548;2023-06-10T15:00:36;24.8;;;7.2;;
72123;SDS011;63818;37.134;-8.548;2023-06-10T15:05:23;21.3;;;6.8;;
72123;SDS011;63818;37.134;-8.548;2023-06-10T15:10:09;19.2;;;6.8;;
72123;SDS011;63818;37.134;-8.548;2023-06-10T15:14:57;19.4;;;7.3;;
72123;SDS011;63818;37.134;-8.548;2023-06-10T15:19:43;18.8;;;7.8;;
72123;SDS011;63818;37.134;-8.548;2023-06-10T15:24:29;15.5;;;7.2;;
72123;SDS011;63818;37.134;-8.548;2023-06-10T15:29:15;16.8;;;6.2;;
72123;SDS011;63818;37.134;-8.548;2023-06-10T15:34:01;16.1;;;6.1;;
72123;SDS011;63818;37.134;-8.548;2023-06-10T15:38:48;12.8;;;6.2;;
72123;SDS011;63818;37.134;-8.548;2023-06-10T15:43:36;21.6;;;7.0;;
72123;SDS011;63818;37.134;-8.548;2023-06-10T15:48:22;22.0;;;7.6;;
72123;SDS011;63818;37.134;-8.548;2023-06-10T15:53:08;14.7;;;7.1;;
72123;SDS011;63818;37.134;-8.548;2023-06-10T15:57:54;14.8;;;6.9;;
72123;SDS011;63818;37.134;-8.548;2023-06-10T16:02:43;17.6;;;7.6;;
72123;SDS011;63818;37.134;-8.548;2023-06-10T16:07:29;20.0;;;7.2;;
72123;SDS011;63818;37.134;-8.548;2023-06-10T16:12:15;18.9;;;6.2;;
72123;SDS011;63818;37.134;-8.548;2023-06-10T16:17:02;17.1;;;6.2;;
72123;SDS011;63818;37.134;-8.548;2023-06-10T16:21:50;21.5;;;6.8;;
72123;SDS011;63818;37.134;-8.548;2023-06-10T16:26:36;25.5;;;7.1;;
72123;SDS011;63818;37.134;-8.548;2023-06-10T16:31:22;21.9;;;6.8;;
72123;SDS011;63818;37.134;-8.548;2023-06-10T16:36:08;23.5;;;6.4;;
72123;SDS011;63818;37.134;-8.548;2023-06-10T16:40:54;22.8;;;6.3;;
72123;SDS011;63818;37.134;-8.548;2023-06-10T16:45:40;16.7;;;6.3;;
72123;SDS011;63818;37.134;-8.548;2023-06-10T16:50:26;14.9;;;6.0;;
72123;SDS011;63818;37.134;-8.548;2023-06-10T16:55:13;15.5;;;6.0;;
72123;SDS011;63818;37.134;-8.548;2023-06-10T16:59:58;15.6;;;6.1;;
72123;SDS011;63818;37.134;-8.548;2023-06-10T17:04:44;16.8;;;6.2;;
72123;SDS011;63818;37.134;-8.548;2023-06-10T17:09:30;17.7;;;6.0;;
72123;SDS011;63818;37.134;-8.548;2023-06-10T17:14:16;14.4;;;5.5;;
72123;SDS011;63818;37.134;-8.548;2023-06-10T17:19:02;12.8;;;5.5;;
72123;SDS011;63818;37.134;-8.548;2023-06-10T17:23:48;16.0;;;6.1;;
72123;SDS011;63818;37.134;-8.548;2023-06-10T17:28:34;16.3;;;6.4;;
72123;SDS011;63818;37.134;-8.548;2023-06-10T17:33:20;13.0;;;5.9;;
72123;SDS011;63818;37.134;-8.548;2023-06-10T17:38:06;11.3;;;5.7;;
72123;SDS011;63818;37.134;-8.548;2023-06-10T17:42:52;11.3;;;5.8;;
72123;SDS011;63818;37.134;-8.548;2023-06-10T17:47:38;26.4;;;6.6;;
72123;SDS011;63818;37.134;-8.548;2023-06-10T17:52:25;27.9;;;7.4;;
72123;SDS011;63818;37.134;-8.548;2023-06-10T17:57:11;15.3;;;7.1;;
72123;SDS011;63818;37.134;-8.548;2023-06-10T18:01:57;16.0;;;6.1;;
72123;SDS011;63818;37.134;-8.548;2023-06-10T18:06:43;16.2;;;5.9;;
72123;SDS011;63818;37.134;-8.548;2023-06-10T18:11:29;16.8;;;6.1;;
72123;SDS011;63818;37.134;-8.548;2023-06-10T18:16:15;16.9;;;5.9;;
72123;SDS011;63818;37.134;-8.548;2023-06-10T18:21:01;15.2;;;5.8;;
72123;SDS011;63818;37.134;-8.548;2023-06-10T18:25:47;13.9;;;5.8;;
72123;SDS011;63818;37.134;-8.548;2023-06-10T18:30:33;13.3;;;5.7;;
72123;SDS011;63818;37.134;-8.548;2023-06-10T18:35:20;12.4;;;5.7;;
72123;SDS011;63818;37.134;-8.548;2023-06-10T18:40:11;12.4;;;5.7;;
72123;SDS011;63818;37.134;-8.548;2023-06-10T18:44:57;13.6;;;5.9;;
72123;SDS011;63818;37.134;-8.548;2023-06-10T18:49:43;14.6;;;6.0;;
72123;SDS011;63818;37.134;-8.548;2023-06-10T18:54:29;14.4;;;5.8;;
72123;SDS011;63818;37.134;-8.548;2023-06-10T18:59:15;14.0;;;5.8;;
72123;SDS011;63818;37.134;-8.548;2023-06-10T19:04:01;13.5;;;5.9;;
72123;SDS011;63818;37.134;-8.548;2023-06-10T19:08:47;13.7;;;6.2;;
72123;SDS011;63818;37.134;-8.548;2023-06-10T19:13:33;13.5;;;5.8;;
72123;SDS011;63818;37.134;-8.548;2023-06-10T19:18:19;10.4;;;5.5;;
72123;SDS011;63818;37.134;-8.548;2023-06-10T19:23:05;12.4;;;5.7;;
72123;SDS011;63818;37.134;-8.548;2023-06-10T19:27:51;13.9;;;5.7;;
72123;SDS011;63818;37.134;-8.548;2023-06-10T19:32:37;14.6;;;6.1;;
72123;SDS011;63818;37.134;-8.548;2023-06-10T19:37:26;16.9;;;6.5;;
72123;SDS011;63818;37.134;-8.548;2023-06-10T19:42:11;14.2;;;6.1;;
72123;SDS011;63818;37.134;-8.548;2023-06-10T19:46:59;17.0;;;6.2;;
72123;SDS011;63818;37.134;-8.548;2023-06-10T19:51:48;18.4;;;6.5;;
72123;SDS011;63818;37.134;-8.548;2023-06-10T19:56:34;17.1;;;6.4;;
72123;SDS011;63818;37.134;-8.548;2023-06-10T20:01:22;16.2;;;6.1;;
72123;SDS011;63818;37.134;-8.548;2023-06-10T20:06:10;15.3;;;6.2;;
72123;SDS011;63818;37.134;-8.548;2023-06-10T20:10:56;17.5;;;6.6;;
72123;SDS011;63818;37.134;-8.548;2023-06-10T20:15:42;16.4;;;6.3;;
72123;SDS011;63818;37.134;-8.548;2023-06-10T20:20:29;17.3;;;6.3;;
72123;SDS011;63818;37.134;-8.548;2023-06-10T20:25:15;15.8;;;6.4;;
72123;SDS011;63818;37.134;-8.548;2023-06-10T20:30:01;14.6;;;6.4;;
72123;SDS011;63818;37.134;-8.548;2023-06-10T20:34:47;14.4;;;6.4;;
72123;SDS011;63818;37.134;-8.548;2023-06-10T20:39:33;13.9;;;6.7;;
72123;SDS011;63818;37.134;-8.548;2023-06-10T20:44:19;18.6;;;6.9;;
72123;SDS011;63818;37.134;-8.548;2023-06-10T20:49:05;20.0;;;7.0;;
72123;SDS011;63818;37.134;-8.548;2023-06-10T20:53:51;18.7;;;7.2;;
72123;SDS011;63818;37.134;-8.548;2023-06-10T20:58:36;15.7;;;6.7;;
72123;SDS011;63818;37.134;-8.548;2023-06-10T21:03:22;14.1;;;6.5;;
72123;SDS011;63818;37.134;-8.548;2023-06-10T21:08:08;13.1;;;6.6;;
72123;SDS011;63818;37.134;-8.548;2023-06-10T21:12:54;14.5;;;6.6;;
72123;SDS011;63818;37.134;-8.548;2023-06-10T21:17:40;19.4;;;6.8;;
72123;SDS011;63818;37.134;-8.548;2023-06-10T21:22:26;19.3;;;6.6;;
72123;SDS011;63818;37.134;-8.548;2023-06-10T21:27:12;18.1;;;7.1;;
72123;SDS011;63818;37.134;-8.548;2023-06-10T21:31:58;18.1;;;7.2;;
72123;SDS011;63818;37.134;-8.548;2023-06-10T21:36:45;15.9;;;6.5;;
72123;SDS011;63818;37.134;-8.548;2023-06-10T21:41:31;14.5;;;6.4;;
72123;SDS011;63818;37.134;-8.548;2023-06-10T21:46:17;16.5;;;6.4;;
72123;SDS011;63818;37.134;-8.548;2023-06-10T21:51:03;15.2;;;6.0;;
72123;SDS011;63818;37.134;-8.548;2023-06-10T21:55:49;17.4;;;6.5;;
72123;SDS011;63818;37.134;-8.548;2023-06-10T22:00:35;19.8;;;7.8;;
72123;SDS011;63818;37.134;-8.548;2023-06-10T22:05:20;19.2;;;7.3;;
72123;SDS011;63818;37.134;-8.548;2023-06-10T22:10:07;19.9;;;6.5;;
72123;SDS011;63818;37.134;-8.548;2023-06-10T22:14:56;18.2;;;6.6;;
72123;SDS011;63818;37.134;-8.548;2023-06-10T22:19:42;16.0;;;6.6;;
72123;SDS011;63818;37.134;-8.548;2023-06-10T22:24:28;17.3;;;6.6;;
72123;SDS011;63818;37.134;-8.548;2023-06-10T22:29:14;19.3;;;6.7;;
72123;SDS011;63818;37.134;-8.548;2023-06-10T22:34:00;21.1;;;7.2;;
72123;SDS011;63818;37.134;-8.548;2023-06-10T22:38:46;18.8;;;7.2;;
72123;SDS011;63818;37.134;-8.548;2023-06-10T22:43:32;13.6;;;6.6;;
72123;SDS011;63818;37.134;-8.548;2023-06-10T22:48:18;14.4;;;6.6;;
72123;SDS011;63818;37.134;-8.548;2023-06-10T22:53:04;15.4;;;6.7;;
72123;SDS011;63818;37.134;-8.548;2023-06-10T22:57:50;16.9;;;6.8;;
72123;SDS011;63818;37.134;-8.548;2023-06-10T23:02:36;17.9;;;6.9;;
72123;SDS011;63818;37.134;-8.548;2023-06-10T23:07:22;17.8;;;6.9;;
72123;SDS011;63818;37.134;-8.548;2023-06-10T23:12:09;16.1;;;7.0;;
72123;SDS011;63818;37.134;-8.548;2023-06-10T23:16:55;15.2;;;7.1;;
72123;SDS011;63818;37.134;-8.548;2023-06-10T23:21:40;14.4;;;7.1;;
72123;SDS011;63818;37.134;-8.548;2023-06-10T23:26:26;16.0;;;6.9;;
72123;SDS011;63818;37.134;-8.548;2023-06-10T23:31:12;17.7;;;6.6;;
72123;SDS011;63818;37.134;-8.548;2023-06-10T23:35:59;17.2;;;6.7;;
72123;SDS011;63818;37.134;-8.548;2023-06-10T23:40:45;19.1;;;6.9;;
72123;SDS011;63818;37.134;-8.548;2023-06-10T23:45:31;18.9;;;7.0;;
72123;SDS011;63818;37.134;-8.548;2023-06-10T23:50:16;19.2;;;6.9;;
72123;SDS011;63818;37.134;-8.548;2023-06-10T23:55:05;18.3;;;6.7;;
72123;SDS011;63818;37.134;-8.548;2023-06-10T23:59:51;15.5;;;7.0;;
